sensor_id;sensor_type;location;lat;lon;timestamp;pressure;altitude;pressure_sealevel;temperature;humidity
33554;BME280;19885;42.208;24.952;2022-12-18T00:01:21;100459.09;;;9.22;100.00
33554;BME280;19885;42.208;24.952;2022-12-18T00:03:48;100453.91;;;9.23;100.00
33554;BME280;19885;42.208;24.952;2022-12-18T00:06:15;100482.72;;;9.34;100.00
33554;BME280;19885;42.208;24.952;2022-12-18T00:08:42;100473.34;;;9.41;100.00
33554;BME280;19885;42.208;24.952;2022-12-18T00:11:12;100494.31;;;9.08;100.00
33554;BME280;19885;42.208;24.952;2022-12-18T00:13:38;100501.25;;;8.72;100.00
33554;BME280;19885;42.208;24.952;2022-12-18T00:16:06;100516.13;;;9.14;100.00
33554;BME280;19885;42.208;24.952;2022-12-18T00:18:33;100508.59;;;9.26;100.00
33554;BME280;19885;42.208;24.952;2022-12-18T00:21:00;100506.53;;;9.12;100.00
33554;BME280;19885;42.208;24.952;2022-12-18T00:23:27;100526.22;;;8.67;100.00
33554;BME280;19885;42.208;24.952;2022-12-18T00:25:52;100526.22;;;8.67;100.00
33554;BME280;19885;42.208;24.952;2022-12-18T00:28:17;100523.16;;;8.83;100.00
33554;BME280;19885;42.208;24.952;2022-12-18T00:30:43;100537.53;;;8.69;100.00
33554;BME280;19885;42.208;24.952;2022-12-18T00:33:09;100545.94;;;8.58;100.00
33554;BME280;19885;42.208;24.952;2022-12-18T00:35:34;100463.22;;;8.08;100.00
33554;BME280;19885;42.208;24.952;2022-12-18T00:38:02;100541.94;;;8.73;100.00
33554;BME280;19885;42.208;24.952;2022-12-18T00:40:27;100563.00;;;8.49;100.00
33554;BME280;19885;42.208;24.952;2022-12-18T00:42:53;100577.88;;;8.25;100.00
33554;BME280;19885;42.208;24.952;2022-12-18T00:45:23;100578.03;;;8.29;100.00
33554;BME280;19885;42.208;24.952;2022-12-18T00:47:48;100581.25;;;8.22;100.00
33554;BME280;19885;42.208;24.952;2022-12-18T00:50:14;100588.78;;;8.13;100.00
33554;BME280;19885;42.208;24.952;2022-12-18T00:52:39;100592.41;;;8.18;100.00
33554;BME280;19885;42.208;24.952;2022-12-18T00:55:05;100581.22;;;8.21;100.00
33554;BME280;19885;42.208;24.952;2022-12-18T00:57:30;100581.22;;;8.21;100.00
33554;BME280;19885;42.208;24.952;2022-12-18T00:59:56;100554.38;;;8.20;100.00
33554;BME280;19885;42.208;24.952;2022-12-18T01:02:21;100587.63;;;8.63;100.00
33554;BME280;19885;42.208;24.952;2022-12-18T01:04:47;100574.44;;;8.90;100.00
33554;BME280;19885;42.208;24.952;2022-12-18T01:07:12;100555.84;;;9.09;100.00
33554;BME280;19885;42.208;24.952;2022-12-18T01:09:37;100570.91;;;9.22;100.00
33554;BME280;19885;42.208;24.952;2022-12-18T01:12:03;100571.31;;;9.40;100.00
33554;BME280;19885;42.208;24.952;2022-12-18T01:14:29;100574.75;;;9.39;100.00
33554;BME280;19885;42.208;24.952;2022-12-18T01:16:54;100565.47;;;9.50;100.00
33554;BME280;19885;42.208;24.952;2022-12-18T01:19:19;100559.56;;;9.57;100.00
33554;BME280;19885;42.208;24.952;2022-12-18T01:21:45;100561.47;;;9.66;100.00
33554;BME280;19885;42.208;24.952;2022-12-18T01:24:11;100565.94;;;9.71;100.00
33554;BME280;19885;42.208;24.952;2022-12-18T01:26:37;100555.56;;;9.73;100.00
33554;BME280;19885;42.208;24.952;2022-12-18T01:29:03;100548.59;;;9.72;100.00
33554;BME280;19885;42.208;24.952;2022-12-18T01:31:31;100566.16;;;9.82;100.00
33554;BME280;19885;42.208;24.952;2022-12-18T01:33:57;100552.84;;;9.68;100.00
33554;BME280;19885;42.208;24.952;2022-12-18T01:36:28;100547.44;;;9.58;100.00
33554;BME280;19885;42.208;24.952;2022-12-18T01:38:54;100562.66;;;9.80;100.00
33554;BME280;19885;42.208;24.952;2022-12-18T01:41:23;100435.44;;;9.11;100.00
33554;BME280;19885;42.208;24.952;2022-12-18T01:43:57;100571.41;;;9.83;100.00
33554;BME280;19885;42.208;24.952;2022-12-18T01:46:23;100587.31;;;9.97;100.00
33554;BME280;19885;42.208;24.952;2022-12-18T01:48:51;100450.53;;;9.27;100.00
33554;BME280;19885;42.208;24.952;2022-12-18T01:51:18;100545.41;;;9.85;100.00
33554;BME280;19885;42.208;24.952;2022-12-18T01:53:44;100572.75;;;10.06;100.00
33554;BME280;19885;42.208;24.952;2022-12-18T01:56:16;100549.03;;;9.93;100.00
33554;BME280;19885;42.208;24.952;2022-12-18T01:58:58;100572.03;;;10.12;100.00
33554;BME280;19885;42.208;24.952;2022-12-18T02:01:25;100541.13;;;9.88;100.00
33554;BME280;19885;42.208;24.952;2022-12-18T02:03:52;100581.41;;;10.05;100.00
33554;BME280;19885;42.208;24.952;2022-12-18T02:17:06;100535.50;;;9.67;100.00
33554;BME280;19885;42.208;24.952;2022-12-18T02:24:44;100525.31;;;9.79;100.00
33554;BME280;19885;42.208;24.952;2022-12-18T02:27:12;100607.88;;;10.25;100.00
33554;BME280;19885;42.208;24.952;2022-12-18T02:29:49;100603.56;;;10.27;100.00
33554;BME280;19885;42.208;24.952;2022-12-18T02:32:30;100604.34;;;10.22;100.00
33554;BME280;19885;42.208;24.952;2022-12-18T02:34:58;100597.28;;;10.18;100.00
33554;BME280;19885;42.208;24.952;2022-12-18T02:37:27;100599.06;;;10.19;100.00
33554;BME280;19885;42.208;24.952;2022-12-18T02:39:55;100613.94;;;10.24;100.00
33554;BME280;19885;42.208;24.952;2022-12-18T02:42:22;100608.56;;;9.76;100.00
33554;BME280;19885;42.208;24.952;2022-12-18T02:44:50;100609.41;;;9.77;100.00
33554;BME280;19885;42.208;24.952;2022-12-18T02:47:31;100596.69;;;9.90;100.00
33554;BME280;19885;42.208;24.952;2022-12-18T02:50:01;100607.47;;;10.05;100.00
33554;BME280;19885;42.208;24.952;2022-12-18T02:52:45;100604.06;;;10.10;100.00
33554;BME280;19885;42.208;24.952;2022-12-18T03:00:32;100603.47;;;10.21;100.00
33554;BME280;19885;42.208;24.952;2022-12-18T03:05:37;100603.47;;;10.21;100.00
33554;BME280;19885;42.208;24.952;2022-12-18T03:08:12;100621.88;;;10.30;100.00
33554;BME280;19885;42.208;24.952;2022-12-18T03:10:45;100611.28;;;10.23;100.00
33554;BME280;19885;42.208;24.952;2022-12-18T03:13:20;100620.00;;;10.25;100.00
33554;BME280;19885;42.208;24.952;2022-12-18T03:15:50;100623.41;;;10.19;100.00
33554;BME280;19885;42.208;24.952;2022-12-18T03:18:40;100628.44;;;10.12;100.00
33554;BME280;19885;42.208;24.952;2022-12-18T03:21:11;100621.47;;;10.11;100.00
33554;BME280;19885;42.208;24.952;2022-12-18T03:23:48;100623.22;;;10.12;100.00
33554;BME280;19885;42.208;24.952;2022-12-18T03:26:17;100616.09;;;10.04;100.00
33554;BME280;19885;42.208;24.952;2022-12-18T03:28:51;100623.81;;;10.00;100.00
33554;BME280;19885;42.208;24.952;2022-12-18T03:31:18;100615.97;;;9.98;100.00
33554;BME280;19885;42.208;24.952;2022-12-18T03:34:00;100623.88;;;10.01;100.00
33554;BME280;19885;42.208;24.952;2022-12-18T03:36:27;100629.81;;;9.97;100.00
33554;BME280;19885;42.208;24.952;2022-12-18T03:38:53;100630.72;;;9.98;100.00
33554;BME280;19885;42.208;24.952;2022-12-18T03:48:56;100646.91;;;9.83;100.00
33554;BME280;19885;42.208;24.952;2022-12-18T03:51:35;100643.03;;;9.66;100.00
33554;BME280;19885;42.208;24.952;2022-12-18T03:54:05;100661.69;;;9.47;100.00
33554;BME280;19885;42.208;24.952;2022-12-18T03:56:40;100655.59;;;9.48;100.00
33554;BME280;19885;42.208;24.952;2022-12-18T03:59:08;100648.03;;;9.57;100.00
33554;BME280;19885;42.208;24.952;2022-12-18T04:01:39;100571.53;;;9.13;100.00
33554;BME280;19885;42.208;24.952;2022-12-18T04:04:06;100642.72;;;9.54;100.00
33554;BME280;19885;42.208;24.952;2022-12-18T04:06:34;100662.63;;;9.51;100.00
33554;BME280;19885;42.208;24.952;2022-12-18T04:09:00;100653.91;;;9.49;100.00
33554;BME280;19885;42.208;24.952;2022-12-18T04:11:26;100669.50;;;9.13;100.00
33554;BME280;19885;42.208;24.952;2022-12-18T04:13:56;100667.72;;;9.12;100.00
33554;BME280;19885;42.208;24.952;2022-12-18T04:16:23;100669.78;;;9.25;100.00
33554;BME280;19885;42.208;24.952;2022-12-18T04:18:48;100657.50;;;9.19;100.00
33554;BME280;19885;42.208;24.952;2022-12-18T04:21:14;100637.34;;;9.11;100.00
33554;BME280;19885;42.208;24.952;2022-12-18T04:23:39;100682.94;;;9.31;100.00
33554;BME280;19885;42.208;24.952;2022-12-18T04:26:04;100669.72;;;9.22;100.00
33554;BME280;19885;42.208;24.952;2022-12-18T04:28:30;100680.97;;;9.22;100.00
33554;BME280;19885;42.208;24.952;2022-12-18T04:30:55;100690.56;;;9.25;100.00
33554;BME280;19885;42.208;24.952;2022-12-18T04:33:21;100632.53;;;8.92;100.00
33554;BME280;19885;42.208;24.952;2022-12-18T04:35:46;100693.28;;;9.28;100.00
33554;BME280;19885;42.208;24.952;2022-12-18T04:38:12;100682.84;;;9.26;100.00
33554;BME280;19885;42.208;24.952;2022-12-18T04:40:38;100694.28;;;9.33;100.00
33554;BME280;19885;42.208;24.952;2022-12-18T04:43:04;100698.59;;;9.34;100.00
33554;BME280;19885;42.208;24.952;2022-12-18T04:45:31;100696.81;;;9.31;100.00
33554;BME280;19885;42.208;24.952;2022-12-18T04:47:58;100690.63;;;9.26;100.00
33554;BME280;19885;42.208;24.952;2022-12-18T04:50:23;100709.78;;;9.30;100.00
33554;BME280;19885;42.208;24.952;2022-12-18T04:52:51;100719.06;;;9.20;100.00
33554;BME280;19885;42.208;24.952;2022-12-18T04:55:17;100707.78;;;9.20;100.00
33554;BME280;19885;42.208;24.952;2022-12-18T04:57:42;100636.47;;;8.76;100.00
33554;BME280;19885;42.208;24.952;2022-12-18T05:00:08;100729.56;;;9.23;100.00
33554;BME280;19885;42.208;24.952;2022-12-18T05:02:34;100723.09;;;9.08;100.00
33554;BME280;19885;42.208;24.952;2022-12-18T05:04:59;100727.50;;;9.10;100.00
33554;BME280;19885;42.208;24.952;2022-12-18T05:07:25;100746.66;;;8.83;100.00
33554;BME280;19885;42.208;24.952;2022-12-18T05:09:50;100748.13;;;8.75;100.00
33554;BME280;19885;42.208;24.952;2022-12-18T05:12:16;100757.25;;;8.04;100.00
33554;BME280;19885;42.208;24.952;2022-12-18T05:14:41;100754.81;;;7.55;100.00
33554;BME280;19885;42.208;24.952;2022-12-18T05:17:06;100765.16;;;7.29;100.00
33554;BME280;19885;42.208;24.952;2022-12-18T05:19:32;100765.50;;;7.14;100.00
33554;BME280;19885;42.208;24.952;2022-12-18T05:21:58;100766.34;;;7.13;100.00
33554;BME280;19885;42.208;24.952;2022-12-18T05:24:23;100775.75;;;7.36;100.00
33554;BME280;19885;42.208;24.952;2022-12-18T05:26:49;100775.22;;;7.71;100.00
33554;BME280;19885;42.208;24.952;2022-12-18T05:29:14;100768.81;;;7.87;100.00
33554;BME280;19885;42.208;24.952;2022-12-18T05:31:40;100774.75;;;7.83;100.00
33554;BME280;19885;42.208;24.952;2022-12-18T05:34:06;100788.25;;;8.00;100.00
33554;BME280;19885;42.208;24.952;2022-12-18T05:36:31;100793.34;;;8.23;100.00
33554;BME280;19885;42.208;24.952;2022-12-18T05:38:57;100784.94;;;8.30;100.00
33554;BME280;19885;42.208;24.952;2022-12-18T05:41:22;100790.75;;;8.23;100.00
33554;BME280;19885;42.208;24.952;2022-12-18T05:43:47;100800.31;;;8.24;100.00
33554;BME280;19885;42.208;24.952;2022-12-18T05:46:15;100812.25;;;8.19;100.00
33554;BME280;19885;42.208;24.952;2022-12-18T05:48:44;100802.75;;;7.93;100.00
33554;BME280;19885;42.208;24.952;2022-12-18T05:51:14;100808.25;;;7.77;100.00
33554;BME280;19885;42.208;24.952;2022-12-18T05:53:41;100810.19;;;8.09;100.00
33554;BME280;19885;42.208;24.952;2022-12-18T05:56:10;100809.22;;;8.32;100.00
33554;BME280;19885;42.208;24.952;2022-12-18T05:58:41;100805.88;;;8.36;100.00
33554;BME280;19885;42.208;24.952;2022-12-18T06:01:16;100807.19;;;8.50;100.00
33554;BME280;19885;42.208;24.952;2022-12-18T06:03:44;100824.44;;;8.77;100.00
33554;BME280;19885;42.208;24.952;2022-12-18T06:06:19;100829.81;;;8.83;100.00
33554;BME280;19885;42.208;24.952;2022-12-18T06:08:44;100817.75;;;8.85;100.00
33554;BME280;19885;42.208;24.952;2022-12-18T06:11:10;100841.66;;;9.03;100.00
33554;BME280;19885;42.208;24.952;2022-12-18T06:13:39;100836.47;;;9.03;100.00
33554;BME280;19885;42.208;24.952;2022-12-18T06:16:08;100833.47;;;9.19;100.00
33554;BME280;19885;42.208;24.952;2022-12-18T06:18:34;100804.44;;;9.04;100.00
33554;BME280;19885;42.208;24.952;2022-12-18T06:21:00;100838.91;;;9.28;100.00
33554;BME280;19885;42.208;24.952;2022-12-18T06:23:26;100703.41;;;8.55;100.00
33554;BME280;19885;42.208;24.952;2022-12-18T06:25:52;100856.94;;;9.53;100.00
33554;BME280;19885;42.208;24.952;2022-12-18T06:28:18;100852.75;;;9.58;100.00
33554;BME280;19885;42.208;24.952;2022-12-18T06:30:45;100862.28;;;9.58;100.00
33554;BME280;19885;42.208;24.952;2022-12-18T06:33:10;100792.84;;;9.24;100.00
33554;BME280;19885;42.208;24.952;2022-12-18T06:35:36;100875.56;;;9.68;100.00
33554;BME280;19885;42.208;24.952;2022-12-18T06:38:02;100858.00;;;9.61;100.00
33554;BME280;19885;42.208;24.952;2022-12-18T06:40:28;100864.00;;;9.59;100.00
33554;BME280;19885;42.208;24.952;2022-12-18T06:42:54;100891.34;;;9.74;100.00
33554;BME280;19885;42.208;24.952;2022-12-18T06:45:20;100890.53;;;9.77;100.00
33554;BME280;19885;42.208;24.952;2022-12-18T06:47:45;100874.84;;;9.74;100.00
33554;BME280;19885;42.208;24.952;2022-12-18T06:50:12;100865.09;;;9.65;100.00
33554;BME280;19885;42.208;24.952;2022-12-18T06:52:38;100877.44;;;9.74;100.00
33554;BME280;19885;42.208;24.952;2022-12-18T06:55:06;100915.94;;;9.85;100.00
33554;BME280;19885;42.208;24.952;2022-12-18T06:57:33;100905.53;;;9.85;100.00
33554;BME280;19885;42.208;24.952;2022-12-18T06:59:58;100892.88;;;9.68;100.00
33554;BME280;19885;42.208;24.952;2022-12-18T07:02:24;100915.75;;;9.79;100.00
33554;BME280;19885;42.208;24.952;2022-12-18T07:04:49;100894.69;;;9.70;100.00
33554;BME280;19885;42.208;24.952;2022-12-18T07:07:15;100877.88;;;9.58;100.00
33554;BME280;19885;42.208;24.952;2022-12-18T07:09:40;100902.84;;;9.82;99.67
33554;BME280;19885;42.208;24.952;2022-12-18T07:12:06;100919.63;;;9.93;99.28
33554;BME280;19885;42.208;24.952;2022-12-18T07:14:33;100862.97;;;9.52;99.21
33554;BME280;19885;42.208;24.952;2022-12-18T07:16:58;100847.97;;;9.42;99.36
33554;BME280;19885;42.208;24.952;2022-12-18T07:19:24;100926.59;;;9.94;99.77
33554;BME280;19885;42.208;24.952;2022-12-18T07:21:50;100921.41;;;9.96;99.00
33554;BME280;19885;42.208;24.952;2022-12-18T07:24:15;100939.00;;;10.04;98.74
33554;BME280;19885;42.208;24.952;2022-12-18T07:26:41;100928.59;;;10.04;98.12
33554;BME280;19885;42.208;24.952;2022-12-18T07:29:06;100939.91;;;10.06;98.30
33554;BME280;19885;42.208;24.952;2022-12-18T07:31:32;100924.81;;;9.93;97.87
33554;BME280;19885;42.208;24.952;2022-12-18T07:33:57;100929.13;;;9.93;97.72
33554;BME280;19885;42.208;24.952;2022-12-18T07:36:22;100954.50;;;10.00;97.31
33554;BME280;19885;42.208;24.952;2022-12-18T07:38:49;100966.81;;;10.05;97.61
33554;BME280;19885;42.208;24.952;2022-12-18T07:41:15;100952.00;;;10.03;97.59
33554;BME280;19885;42.208;24.952;2022-12-18T07:43:41;100940.47;;;9.95;97.28
33554;BME280;19885;42.208;24.952;2022-12-18T07:46:07;100968.66;;;10.10;97.15
33554;BME280;19885;42.208;24.952;2022-12-18T07:48:33;100936.91;;;9.91;97.34
33554;BME280;19885;42.208;24.952;2022-12-18T07:51:03;100833.75;;;9.29;96.60
33554;BME280;19885;42.208;24.952;2022-12-18T07:53:29;100968.31;;;9.97;97.01
33554;BME280;19885;42.208;24.952;2022-12-18T07:55:56;100966.50;;;9.95;98.32
33554;BME280;19885;42.208;24.952;2022-12-18T07:58:22;100964.47;;;9.83;98.65
33554;BME280;19885;42.208;24.952;2022-12-18T08:00:47;100944.00;;;9.64;98.46
33554;BME280;19885;42.208;24.952;2022-12-18T08:03:13;100977.38;;;9.79;99.09
33554;BME280;19885;42.208;24.952;2022-12-18T08:05:38;100992.22;;;9.83;99.69
33554;BME280;19885;42.208;24.952;2022-12-18T08:08:04;100985.13;;;9.77;100.00
33554;BME280;19885;42.208;24.952;2022-12-18T08:10:29;100973.09;;;9.81;100.00
33554;BME280;19885;42.208;24.952;2022-12-18T08:12:54;100928.69;;;9.45;99.81
33554;BME280;19885;42.208;24.952;2022-12-18T08:15:20;100985.84;;;9.72;99.61
33554;BME280;19885;42.208;24.952;2022-12-18T08:17:45;100985.84;;;9.72;100.00
33554;BME280;19885;42.208;24.952;2022-12-18T08:20:11;100997.13;;;9.72;100.00
33554;BME280;19885;42.208;24.952;2022-12-18T08:22:39;101010.31;;;9.78;100.00
33554;BME280;19885;42.208;24.952;2022-12-18T08:25:05;101006.13;;;9.83;100.00
33554;BME280;19885;42.208;24.952;2022-12-18T08:27:30;101005.16;;;9.80;99.03
33554;BME280;19885;42.208;24.952;2022-12-18T08:29:56;101011.34;;;9.83;98.71
33554;BME280;19885;42.208;24.952;2022-12-18T08:32:22;100992.91;;;9.76;98.79
33554;BME280;19885;42.208;24.952;2022-12-18T08:34:47;101023.59;;;9.87;98.23
33554;BME280;19885;42.208;24.952;2022-12-18T08:37:13;101021.16;;;9.93;98.45
33554;BME280;19885;42.208;24.952;2022-12-18T08:39:38;101015.94;;;9.93;98.31
33554;BME280;19885;42.208;24.952;2022-12-18T08:42:04;101022.19;;;9.98;97.29
33554;BME280;19885;42.208;24.952;2022-12-18T08:44:48;101010.78;;;9.95;97.72
33554;BME280;19885;42.208;24.952;2022-12-18T08:47:13;101019.66;;;10.01;97.84
33554;BME280;19885;42.208;24.952;2022-12-18T08:49:38;101017.31;;;10.11;97.76
33554;BME280;19885;42.208;24.952;2022-12-18T08:52:04;101007.88;;;10.14;98.14
33554;BME280;19885;42.208;24.952;2022-12-18T08:54:29;101021.84;;;10.18;98.04
33554;BME280;19885;42.208;24.952;2022-12-18T08:56:55;100946.16;;;9.80;97.88
33554;BME280;19885;42.208;24.952;2022-12-18T08:59:20;101019.31;;;10.19;98.05
33554;BME280;19885;42.208;24.952;2022-12-18T09:01:47;100998.59;;;10.24;98.01
33554;BME280;19885;42.208;24.952;2022-12-18T09:04:13;101009.06;;;10.27;97.77
33554;BME280;19885;42.208;24.952;2022-12-18T09:06:39;101007.47;;;10.32;98.05
33554;BME280;19885;42.208;24.952;2022-12-18T09:09:05;100982.97;;;10.24;97.77
33554;BME280;19885;42.208;24.952;2022-12-18T09:11:33;101007.66;;;10.38;97.23
33554;BME280;19885;42.208;24.952;2022-12-18T09:14:00;101002.34;;;10.35;97.51
33554;BME280;19885;42.208;24.952;2022-12-18T09:16:27;101001.53;;;10.36;97.49
33554;BME280;19885;42.208;24.952;2022-12-18T09:18:54;100986.47;;;10.26;97.18
33554;BME280;19885;42.208;24.952;2022-12-18T09:21:25;100988.41;;;10.33;97.24
33554;BME280;19885;42.208;24.952;2022-12-18T09:23:52;100997.03;;;10.32;96.09
33554;BME280;19885;42.208;24.952;2022-12-18T09:26:18;101003.19;;;10.34;95.68
33554;BME280;19885;42.208;24.952;2022-12-18T09:28:44;101005.03;;;10.38;95.50
33554;BME280;19885;42.208;24.952;2022-12-18T09:31:11;100923.06;;;9.92;94.88
33554;BME280;19885;42.208;24.952;2022-12-18T09:33:37;101002.34;;;10.35;95.69
33554;BME280;19885;42.208;24.952;2022-12-18T09:36:05;100997.28;;;10.41;95.89
33554;BME280;19885;42.208;24.952;2022-12-18T09:38:32;101005.44;;;10.53;95.06
33554;BME280;19885;42.208;24.952;2022-12-18T09:41:04;101009.03;;;10.58;95.48
33554;BME280;19885;42.208;24.952;2022-12-18T09:43:42;101004.81;;;10.63;96.58
33554;BME280;19885;42.208;24.952;2022-12-18T09:46:19;100991.94;;;10.69;96.85
33554;BME280;19885;42.208;24.952;2022-12-18T09:48:49;100927.56;;;10.31;95.99
33554;BME280;19885;42.208;24.952;2022-12-18T09:51:25;100992.84;;;10.71;96.62
33554;BME280;19885;42.208;24.952;2022-12-18T09:54:05;101007.78;;;10.78;95.88
33554;BME280;19885;42.208;24.952;2022-12-18T09:56:38;100997.13;;;10.69;95.74
33554;BME280;19885;42.208;24.952;2022-12-18T09:59:05;101007.66;;;10.72;96.99
33554;BME280;19885;42.208;24.952;2022-12-18T10:01:32;101005.88;;;10.71;95.61
33554;BME280;19885;42.208;24.952;2022-12-18T10:03:58;101013.00;;;10.78;94.59
33554;BME280;19885;42.208;24.952;2022-12-18T10:09:24;101021.50;;;10.69;94.37
33554;BME280;19885;42.208;24.952;2022-12-18T10:15:02;101021.44;;;10.68;95.42
33554;BME280;19885;42.208;24.952;2022-12-18T10:17:58;100996.22;;;10.67;95.41
33554;BME280;19885;42.208;24.952;2022-12-18T10:20:36;101021.66;;;10.77;95.64
33554;BME280;19885;42.208;24.952;2022-12-18T10:26:05;101022.91;;;10.93;94.67
33554;BME280;19885;42.208;24.952;2022-12-18T10:28:33;100944.66;;;10.54;94.98
33554;BME280;19885;42.208;24.952;2022-12-18T10:31:00;101031.91;;;11.05;95.23
33554;BME280;19885;42.208;24.952;2022-12-18T10:33:29;101023.00;;;10.97;95.58
33554;BME280;19885;42.208;24.952;2022-12-18T10:35:55;101025.00;;;11.07;95.14
33554;BME280;19885;42.208;24.952;2022-12-18T10:38:25;100997.66;;;10.90;94.63
33554;BME280;19885;42.208;24.952;2022-12-18T10:41:05;100964.28;;;10.75;94.00
33554;BME280;19885;42.208;24.952;2022-12-18T10:43:34;101026.84;;;11.11;92.13
33554;BME280;19885;42.208;24.952;2022-12-18T10:51:23;101044.41;;;11.18;92.18
33554;BME280;19885;42.208;24.952;2022-12-18T10:53:59;101054.84;;;11.18;92.23
33554;BME280;19885;42.208;24.952;2022-12-18T10:56:27;101054.97;;;11.24;91.62
33554;BME280;19885;42.208;24.952;2022-12-18T10:59:04;101060.25;;;11.27;91.51
33554;BME280;19885;42.208;24.952;2022-12-18T11:01:56;101067.38;;;11.34;90.52
33554;BME280;19885;42.208;24.952;2022-12-18T11:04:27;101061.53;;;11.07;90.75
33554;BME280;19885;42.208;24.952;2022-12-18T11:09:20;101068.78;;;11.20;91.86
33554;BME280;19885;42.208;24.952;2022-12-18T11:11:51;101070.09;;;11.37;91.12
33554;BME280;19885;42.208;24.952;2022-12-18T11:15:03;101067.69;;;11.46;91.48
33554;BME280;19885;42.208;24.952;2022-12-18T11:17:30;101067.69;;;11.46;91.33
33554;BME280;19885;42.208;24.952;2022-12-18T11:20:02;101051.94;;;11.43;91.84
33554;BME280;19885;42.208;24.952;2022-12-18T11:22:30;100987.69;;;11.11;91.88
33554;BME280;19885;42.208;24.952;2022-12-18T11:25:02;101059.66;;;11.39;93.20
33554;BME280;19885;42.208;24.952;2022-12-18T11:27:30;100988.75;;;10.82;94.62
33554;BME280;19885;42.208;24.952;2022-12-18T11:30:30;101070.28;;;11.46;93.84
33554;BME280;19885;42.208;24.952;2022-12-18T11:36:02;101064.06;;;11.41;93.45
33554;BME280;19885;42.208;24.952;2022-12-18T11:41:02;101072.25;;;11.57;93.22
33554;BME280;19885;42.208;24.952;2022-12-18T11:43:37;101077.44;;;11.55;93.28
33554;BME280;19885;42.208;24.952;2022-12-18T11:46:13;101080.47;;;11.36;93.60
33554;BME280;19885;42.208;24.952;2022-12-18T11:48:52;101069.34;;;11.07;95.67
33554;BME280;19885;42.208;24.952;2022-12-18T11:51:33;101080.41;;;11.33;94.79
33554;BME280;19885;42.208;24.952;2022-12-18T11:54:01;101085.63;;;11.33;94.46
33554;BME280;19885;42.208;24.952;2022-12-18T11:56:30;101095.47;;;11.44;94.55
33554;BME280;19885;42.208;24.952;2022-12-18T11:59:21;101088.41;;;11.40;94.79
33554;BME280;19885;42.208;24.952;2022-12-18T12:01:50;101096.50;;;11.15;96.32
33554;BME280;19885;42.208;24.952;2022-12-18T12:10:01;101095.97;;;10.60;100.00
33554;BME280;19885;42.208;24.952;2022-12-18T12:21:00;101097.22;;;10.43;100.00
33554;BME280;19885;42.208;24.952;2022-12-18T12:23:50;101098.44;;;10.55;100.00
33554;BME280;19885;42.208;24.952;2022-12-18T12:26:44;101092.59;;;10.64;100.00
33554;BME280;19885;42.208;24.952;2022-12-18T12:29:29;101099.81;;;10.41;100.00
33554;BME280;19885;42.208;24.952;2022-12-18T12:34:58;101087.50;;;10.06;100.00
33554;BME280;19885;42.208;24.952;2022-12-18T12:38:21;101108.72;;;9.90;100.00
33554;BME280;19885;42.208;24.952;2022-12-18T12:40:28;101113.22;;;9.95;100.00
33554;BME280;19885;42.208;24.952;2022-12-18T12:43:01;101107.19;;;9.96;100.00
33554;BME280;19885;42.208;24.952;2022-12-18T12:46:06;101109.63;;;10.20;100.00
33554;BME280;19885;42.208;24.952;2022-12-18T12:48:59;101122.78;;;10.25;100.00
33554;BME280;19885;42.208;24.952;2022-12-18T12:51:33;101132.53;;;10.32;100.00
33554;BME280;19885;42.208;24.952;2022-12-18T12:54:00;101118.69;;;10.33;100.00
33554;BME280;19885;42.208;24.952;2022-12-18T12:56:49;101130.50;;;10.51;100.00
33554;BME280;19885;42.208;24.952;2022-12-18T13:02:30;101138.09;;;10.44;100.00
33554;BME280;19885;42.208;24.952;2022-12-18T13:10:22;101147.44;;;10.67;100.00
33554;BME280;19885;42.208;24.952;2022-12-18T13:13:07;101151.09;;;10.75;100.00
33554;BME280;19885;42.208;24.952;2022-12-18T13:28:16;101167.13;;;10.26;100.00
33554;BME280;19885;42.208;24.952;2022-12-18T13:30:42;101169.00;;;10.32;100.00
33554;BME280;19885;42.208;24.952;2022-12-18T13:35:50;101181.69;;;9.93;100.00
33554;BME280;19885;42.208;24.952;2022-12-18T13:38:24;101176.97;;;9.80;100.00
33554;BME280;19885;42.208;24.952;2022-12-18T13:41:01;101094.84;;;9.33;100.00
33554;BME280;19885;42.208;24.952;2022-12-18T13:46:03;101170.59;;;9.70;100.00
33554;BME280;19885;42.208;24.952;2022-12-18T13:48:32;101198.50;;;9.74;100.00
33554;BME280;19885;42.208;24.952;2022-12-18T13:51:09;101178.25;;;9.66;100.00
33554;BME280;19885;42.208;24.952;2022-12-18T13:54:40;101198.28;;;9.68;100.00
33554;BME280;19885;42.208;24.952;2022-12-18T13:56:48;101198.06;;;9.61;100.00
33554;BME280;19885;42.208;24.952;2022-12-18T13:59:23;101203.00;;;9.53;100.00
33554;BME280;19885;42.208;24.952;2022-12-18T14:02:00;101208.81;;;9.45;100.00
33554;BME280;19885;42.208;24.952;2022-12-18T14:04:30;101207.88;;;9.43;100.00
33554;BME280;19885;42.208;24.952;2022-12-18T14:07:17;101217.25;;;9.38;100.00
33554;BME280;19885;42.208;24.952;2022-12-18T14:09:47;101161.88;;;8.90;100.00
33554;BME280;19885;42.208;24.952;2022-12-18T14:12:24;101137.78;;;8.70;100.00
33554;BME280;19885;42.208;24.952;2022-12-18T14:15:23;101231.22;;;9.16;100.00
33554;BME280;19885;42.208;24.952;2022-12-18T14:20:46;101241.31;;;9.07;100.00
33554;BME280;19885;42.208;24.952;2022-12-18T14:25:56;101249.34;;;9.13;100.00
33554;BME280;19885;42.208;24.952;2022-12-18T14:28:22;101248.19;;;9.05;100.00
33554;BME280;19885;42.208;24.952;2022-12-18T14:30:48;101259.00;;;9.17;100.00
33554;BME280;19885;42.208;24.952;2022-12-18T14:33:21;101266.53;;;9.09;100.00
33554;BME280;19885;42.208;24.952;2022-12-18T14:35:59;101255.22;;;9.07;100.00